sensor_id;sensor_type;location;lat;lon;timestamp;pressure;altitude;pressure_sealevel;temperature;humidity
71778;BME280;59609;52.430;4.668;2023-05-27T00:00:23;103038.31;;;10.03;94.83
71778;BME280;59609;52.430;4.668;2023-05-27T00:02:48;103031.03;;;10.02;95.29
71778;BME280;59609;52.430;4.668;2023-05-27T00:05:14;103037.09;;;9.94;96.30
71778;BME280;59609;52.430;4.668;2023-05-27T00:07:39;103027.75;;;9.97;95.75
71778;BME280;59609;52.430;4.668;2023-05-27T00:10:05;103026.19;;;9.93;95.95
71778;BME280;59609;52.430;4.668;2023-05-27T00:12:31;103043.59;;;9.93;97.03
71778;BME280;59609;52.430;4.668;2023-05-27T00:14:56;103031.78;;;9.91;95.98
71778;BME280;59609;52.430;4.668;2023-05-27T00:17:21;103045.16;;;9.97;96.16
71778;BME280;59609;52.430;4.668;2023-05-27T00:19:47;103031.91;;;9.90;95.79
71778;BME280;59609;52.430;4.668;2023-05-27T00:22:15;103040.72;;;9.95;96.37
71778;BME280;59609;52.430;4.668;2023-05-27T00:24:40;103047.47;;;9.91;96.90
71778;BME280;59609;52.430;4.668;2023-05-27T00:27:07;103043.47;;;9.95;96.46
71778;BME280;59609;52.430;4.668;2023-05-27T00:29:32;103045.56;;;9.91;97.37
71778;BME280;59609;52.430;4.668;2023-05-27T00:31:59;103041.59;;;9.82;97.73
71778;BME280;59609;52.430;4.668;2023-05-27T00:34:25;103051.41;;;9.87;97.96
71778;BME280;59609;52.430;4.668;2023-05-27T00:36:50;103042.13;;;9.88;97.19
71778;BME280;59609;52.430;4.668;2023-05-27T00:39:16;103033.34;;;9.82;97.64
71778;BME280;59609;52.430;4.668;2023-05-27T00:41:46;103040.63;;;9.83;97.64
71778;BME280;59609;52.430;4.668;2023-05-27T00:44:13;103042.38;;;9.84;97.62
71778;BME280;59609;52.430;4.668;2023-05-27T00:46:38;103037.19;;;9.80;98.36
71778;BME280;59609;52.430;4.668;2023-05-27T00:49:03;103036.84;;;9.72;98.27
71778;BME280;59609;52.430;4.668;2023-05-27T00:51:29;103032.31;;;9.71;97.99
71778;BME280;59609;52.430;4.668;2023-05-27T00:53:55;103031.88;;;9.64;99.50
71778;BME280;59609;52.430;4.668;2023-05-27T00:56:20;103035.63;;;9.63;99.38
71778;BME280;59609;52.430;4.668;2023-05-27T00:58:46;103029.25;;;9.63;99.12
71778;BME280;59609;52.430;4.668;2023-05-27T01:01:11;103034.28;;;9.56;98.47
71778;BME280;59609;52.430;4.668;2023-05-27T01:03:37;103026.25;;;9.53;98.88
71778;BME280;59609;52.430;4.668;2023-05-27T01:09:03;103031.09;;;9.50;98.86
71778;BME280;59609;52.430;4.668;2023-05-27T01:14:43;103022.38;;;9.43;99.67
71778;BME280;59609;52.430;4.668;2023-05-27T01:17:11;103018.97;;;9.40;99.33
71778;BME280;59609;52.430;4.668;2023-05-27T01:19:40;103018.28;;;9.36;99.57
71778;BME280;59609;52.430;4.668;2023-05-27T01:22:08;103026.75;;;9.33;99.98
71778;BME280;59609;52.430;4.668;2023-05-27T01:24:34;103022.34;;;9.30;100.00
71778;BME280;59609;52.430;4.668;2023-05-27T01:27:02;103017.47;;;9.21;100.00
71778;BME280;59609;52.430;4.668;2023-05-27T01:29:28;103021.22;;;9.20;100.00
71778;BME280;59609;52.430;4.668;2023-05-27T01:32:00;103013.81;;;9.21;100.00
71778;BME280;59609;52.430;4.668;2023-05-27T01:34:37;103013.25;;;9.16;100.00
71778;BME280;59609;52.430;4.668;2023-05-27T01:37:09;103012.59;;;9.12;100.00
71778;BME280;59609;52.430;4.668;2023-05-27T01:39:39;103006.19;;;9.12;100.00
71778;BME280;59609;52.430;4.668;2023-05-27T01:42:06;103014.56;;;9.10;100.00
71778;BME280;59609;52.430;4.668;2023-05-27T01:44:32;103014.88;;;9.06;100.00
71778;BME280;59609;52.430;4.668;2023-05-27T01:47:02;103006.16;;;8.99;100.00
71778;BME280;59609;52.430;4.668;2023-05-27T01:49:29;103000.06;;;8.94;100.00
71778;BME280;59609;52.430;4.668;2023-05-27T01:51:54;103017.16;;;8.99;100.00
71778;BME280;59609;52.430;4.668;2023-05-27T01:54:20;103011.44;;;9.02;100.00
71778;BME280;59609;52.430;4.668;2023-05-27T01:56:45;103012.56;;;9.00;100.00
71778;BME280;59609;52.430;4.668;2023-05-27T01:59:10;103012.75;;;8.97;100.00
71778;BME280;59609;52.430;4.668;2023-05-27T02:01:36;103009.84;;;8.86;100.00
71778;BME280;59609;52.430;4.668;2023-05-27T02:04:01;103012.69;;;8.84;100.00
71778;BME280;59609;52.430;4.668;2023-05-27T02:06:29;103010.94;;;8.83;100.00
71778;BME280;59609;52.430;4.668;2023-05-27T02:08:54;103017.63;;;8.79;100.00
71778;BME280;59609;52.430;4.668;2023-05-27T02:11:20;103024.97;;;8.78;100.00
71778;BME280;59609;52.430;4.668;2023-05-27T02:13:45;103016.94;;;8.75;100.00
71778;BME280;59609;52.430;4.668;2023-05-27T02:16:10;103009.78;;;8.73;100.00
71778;BME280;59609;52.430;4.668;2023-05-27T02:18:37;103006.72;;;8.77;100.00
71778;BME280;59609;52.430;4.668;2023-05-27T02:21:04;103003.09;;;8.77;100.00
71778;BME280;59609;52.430;4.668;2023-05-27T02:23:34;103007.59;;;8.78;100.00
71778;BME280;59609;52.430;4.668;2023-05-27T02:25:59;103003.41;;;8.72;100.00
71778;BME280;59609;52.430;4.668;2023-05-27T02:28:26;102995.44;;;8.68;100.00
71778;BME280;59609;52.430;4.668;2023-05-27T02:30:51;103007.13;;;8.71;100.00
71778;BME280;59609;52.430;4.668;2023-05-27T02:33:17;103005.25;;;8.72;100.00
71778;BME280;59609;52.430;4.668;2023-05-27T02:35:42;103005.38;;;8.70;100.00
71778;BME280;59609;52.430;4.668;2023-05-27T02:38:08;102990.50;;;8.60;100.00
71778;BME280;59609;52.430;4.668;2023-05-27T02:40:33;103001.47;;;8.60;100.00
71778;BME280;59609;52.430;4.668;2023-05-27T02:42:58;103014.69;;;8.68;100.00
71778;BME280;59609;52.430;4.668;2023-05-27T02:45:24;103014.81;;;8.66;100.00
71778;BME280;59609;52.430;4.668;2023-05-27T02:47:50;103014.81;;;8.66;100.00
71778;BME280;59609;52.430;4.668;2023-05-27T02:50:16;103018.31;;;8.68;100.00
71778;BME280;59609;52.430;4.668;2023-05-27T02:52:41;103020.97;;;8.70;100.00
71778;BME280;59609;52.430;4.668;2023-05-27T02:55:07;103018.22;;;8.70;100.00
71778;BME280;59609;52.430;4.668;2023-05-27T02:57:33;103015.47;;;8.70;100.00
71778;BME280;59609;52.430;4.668;2023-05-27T02:59:58;103013.81;;;8.67;100.00
71778;BME280;59609;52.430;4.668;2023-05-27T03:02:24;103014.59;;;8.69;100.00
71778;BME280;59609;52.430;4.668;2023-05-27T03:04:49;103006.66;;;8.65;100.00
71778;BME280;59609;52.430;4.668;2023-05-27T03:07:15;103016.84;;;8.77;100.00
71778;BME280;59609;52.430;4.668;2023-05-27T03:09:40;103015.53;;;8.83;100.00
71778;BME280;59609;52.430;4.668;2023-05-27T03:12:06;103003.88;;;8.79;100.00
71778;BME280;59609;52.430;4.668;2023-05-27T03:14:32;103000.53;;;8.74;100.00
71778;BME280;59609;52.430;4.668;2023-05-27T03:16:57;103001.41;;;8.74;100.00
71778;BME280;59609;52.430;4.668;2023-05-27T03:19:22;103003.28;;;8.74;100.00
71778;BME280;59609;52.430;4.668;2023-05-27T03:21:48;103007.25;;;8.70;100.00
71778;BME280;59609;52.430;4.668;2023-05-27T03:24:13;103003.41;;;8.72;100.00
71778;BME280;59609;52.430;4.668;2023-05-27T03:26:39;102999.00;;;8.70;100.00
71778;BME280;59609;52.430;4.668;2023-05-27T03:29:04;103001.63;;;8.71;100.00
71778;BME280;59609;52.430;4.668;2023-05-27T03:31:30;103000.66;;;8.72;100.00
71778;BME280;59609;52.430;4.668;2023-05-27T03:33:56;102998.88;;;8.71;100.00
71778;BME280;59609;52.430;4.668;2023-05-27T03:36:21;102988.81;;;8.58;100.00
71778;BME280;59609;52.430;4.668;2023-05-27T03:38:47;102999.28;;;8.65;100.00
71778;BME280;59609;52.430;4.668;2023-05-27T03:41:12;103009.50;;;8.63;100.00
71778;BME280;59609;52.430;4.668;2023-05-27T03:43:37;103006.44;;;8.68;100.00
71778;BME280;59609;52.430;4.668;2023-05-27T03:46:03;103003.00;;;8.64;100.00
71778;BME280;59609;52.430;4.668;2023-05-27T03:48:28;102992.91;;;8.65;100.00
71778;BME280;59609;52.430;4.668;2023-05-27T03:50:54;102999.88;;;8.70;100.00
71778;BME280;59609;52.430;4.668;2023-05-27T03:53:19;102991.22;;;8.76;100.00
71778;BME280;59609;52.430;4.668;2023-05-27T03:55:45;102992.47;;;8.85;100.00
71778;BME280;59609;52.430;4.668;2023-05-27T03:58:10;102988.31;;;8.92;100.00
71778;BME280;59609;52.430;4.668;2023-05-27T04:00:41;102989.47;;;9.02;100.00
71778;BME280;59609;52.430;4.668;2023-05-27T04:03:07;102984.31;;;9.10;100.00
71778;BME280;59609;52.430;4.668;2023-05-27T04:05:33;102985.75;;;9.16;100.00
71778;BME280;59609;52.430;4.668;2023-05-27T04:07:58;102982.13;;;9.15;100.00
71778;BME280;59609;52.430;4.668;2023-05-27T04:10:23;102979.28;;;9.17;100.00
71778;BME280;59609;52.430;4.668;2023-05-27T04:12:49;102981.81;;;9.20;100.00
71778;BME280;59609;52.430;4.668;2023-05-27T04:15:15;102979.38;;;9.15;100.00
71778;BME280;59609;52.430;4.668;2023-05-27T04:17:41;102983.91;;;9.16;100.00
71778;BME280;59609;52.430;4.668;2023-05-27T04:20:07;102977.59;;;9.14;100.00
71778;BME280;59609;52.430;4.668;2023-05-27T04:22:39;102983.56;;;9.21;100.00
71778;BME280;59609;52.430;4.668;2023-05-27T04:25:05;102979.53;;;9.26;100.00
71778;BME280;59609;52.430;4.668;2023-05-27T04:27:31;102994.94;;;9.29;100.00
71778;BME280;59609;52.430;4.668;2023-05-27T04:29:56;102991.88;;;9.34;100.00
71778;BME280;59609;52.430;4.668;2023-05-27T04:32:24;102981.41;;;9.26;100.00
71778;BME280;59609;52.430;4.668;2023-05-27T04:34:50;102973.38;;;9.36;100.00
71778;BME280;59609;52.430;4.668;2023-05-27T04:37:15;102995.31;;;9.50;100.00
71778;BME280;59609;52.430;4.668;2023-05-27T04:39:42;102986.06;;;9.51;100.00
71778;BME280;59609;52.430;4.668;2023-05-27T04:42:11;102992.03;;;9.57;100.00
71778;BME280;59609;52.430;4.668;2023-05-27T04:44:38;102983.34;;;9.63;100.00
71778;BME280;59609;52.430;4.668;2023-05-27T04:47:04;102971.75;;;9.58;100.00
71778;BME280;59609;52.430;4.668;2023-05-27T04:49:30;102985.44;;;9.72;100.00
71778;BME280;59609;52.430;4.668;2023-05-27T04:51:56;102977.06;;;10.24;99.53
71778;BME280;59609;52.430;4.668;2023-05-27T04:54:22;102981.34;;;12.17;89.57
71778;BME280;59609;52.430;4.668;2023-05-27T04:56:48;102986.41;;;13.31;83.77
71778;BME280;59609;52.430;4.668;2023-05-27T04:59:16;102982.53;;;13.96;78.18
71778;BME280;59609;52.430;4.668;2023-05-27T05:01:43;102968.78;;;14.15;74.86
71778;BME280;59609;52.430;4.668;2023-05-27T05:04:35;102983.34;;;14.68;74.52
71778;BME280;59609;52.430;4.668;2023-05-27T05:07:00;102991.94;;;14.65;75.13
71778;BME280;59609;52.430;4.668;2023-05-27T05:09:25;102986.00;;;14.79;72.37
71778;BME280;59609;52.430;4.668;2023-05-27T05:11:51;102986.50;;;15.03;71.53
71778;BME280;59609;52.430;4.668;2023-05-27T05:14:16;102987.50;;;14.43;75.74
71778;BME280;59609;52.430;4.668;2023-05-27T05:16:41;102978.59;;;14.39;73.94
71778;BME280;59609;52.430;4.668;2023-05-27T05:19:07;102976.22;;;13.84;77.83
71778;BME280;59609;52.430;4.668;2023-05-27T05:21:32;102976.25;;;14.14;78.08
71778;BME280;59609;52.430;4.668;2023-05-27T05:23:58;102968.03;;;13.82;78.35
71778;BME280;59609;52.430;4.668;2023-05-27T05:26:23;102947.28;;;12.50;84.92
71778;BME280;59609;52.430;4.668;2023-05-27T05:28:48;102953.81;;;12.37;87.17
71778;BME280;59609;52.430;4.668;2023-05-27T05:31:14;102946.69;;;12.13;87.13
71778;BME280;59609;52.430;4.668;2023-05-27T05:33:39;102947.03;;;11.86;88.56
71778;BME280;59609;52.430;4.668;2023-05-27T05:36:05;102950.34;;;11.56;91.38
71778;BME280;59609;52.430;4.668;2023-05-27T05:38:31;102939.63;;;11.41;92.42
71778;BME280;59609;52.430;4.668;2023-05-27T05:40:56;102944.94;;;11.55;90.36
71778;BME280;59609;52.430;4.668;2023-05-27T05:43:22;102946.72;;;11.67;90.93
71778;BME280;59609;52.430;4.668;2023-05-27T05:45:47;102952.84;;;11.59;91.94
71778;BME280;59609;52.430;4.668;2023-05-27T05:48:13;102947.44;;;11.47;92.86
71778;BME280;59609;52.430;4.668;2023-05-27T05:50:38;102951.44;;;11.43;92.30
71778;BME280;59609;52.430;4.668;2023-05-27T05:53:03;102961.25;;;11.58;92.04
71778;BME280;59609;52.430;4.668;2023-05-27T05:55:29;102945.44;;;11.60;92.12
71778;BME280;59609;52.430;4.668;2023-05-27T05:57:54;102935.94;;;11.64;91.63
71778;BME280;59609;52.430;4.668;2023-05-27T06:00:19;102940.38;;;11.88;90.71
71778;BME280;59609;52.430;4.668;2023-05-27T06:02:45;102940.78;;;12.17;88.98
71778;BME280;59609;52.430;4.668;2023-05-27T06:05:10;102925.59;;;12.01;88.31
71778;BME280;59609;52.430;4.668;2023-05-27T06:07:35;102937.88;;;12.30;88.71
71778;BME280;59609;52.430;4.668;2023-05-27T06:10:01;102946.50;;;12.48;87.83
71778;BME280;59609;52.430;4.668;2023-05-27T06:12:26;102942.63;;;13.04;85.24
71778;BME280;59609;52.430;4.668;2023-05-27T06:14:52;102946.91;;;12.97;85.29
71778;BME280;59609;52.430;4.668;2023-05-27T06:17:17;102951.78;;;13.16;84.87
71778;BME280;59609;52.430;4.668;2023-05-27T06:19:42;102941.75;;;12.93;83.80
71778;BME280;59609;52.430;4.668;2023-05-27T06:22:08;102941.16;;;12.89;82.90
71778;BME280;59609;52.430;4.668;2023-05-27T06:24:33;102930.41;;;12.64;84.12
71778;BME280;59609;52.430;4.668;2023-05-27T06:26:59;102938.31;;;12.68;84.05
71778;BME280;59609;52.430;4.668;2023-05-27T06:29:24;102925.19;;;12.81;83.94
71778;BME280;59609;52.430;4.668;2023-05-27T06:31:49;102937.72;;;12.97;83.66
71778;BME280;59609;52.430;4.668;2023-05-27T06:34:15;102931.78;;;13.12;82.26
71778;BME280;59609;52.430;4.668;2023-05-27T06:36:41;102936.69;;;12.98;81.20
71778;BME280;59609;52.430;4.668;2023-05-27T06:39:07;102934.00;;;12.75;82.00
71778;BME280;59609;52.430;4.668;2023-05-27T06:41:32;102937.03;;;13.15;81.34
71778;BME280;59609;52.430;4.668;2023-05-27T06:43:57;102932.94;;;13.10;81.42
71778;BME280;59609;52.430;4.668;2023-05-27T06:46:23;102933.09;;;13.29;80.72
71778;BME280;59609;52.430;4.668;2023-05-27T06:48:48;102932.47;;;13.25;80.26
71778;BME280;59609;52.430;4.668;2023-05-27T06:51:14;102932.63;;;13.65;79.19
71778;BME280;59609;52.430;4.668;2023-05-27T06:53:40;102928.28;;;13.93;78.57
71778;BME280;59609;52.430;4.668;2023-05-27T06:56:06;102936.97;;;14.09;77.38
71778;BME280;59609;52.430;4.668;2023-05-27T06:58:31;102931.50;;;14.28;76.34
71778;BME280;59609;52.430;4.668;2023-05-27T07:00:56;102937.00;;;14.19;76.14
71778;BME280;59609;52.430;4.668;2023-05-27T07:03:22;102934.91;;;14.11;76.05
71778;BME280;59609;52.430;4.668;2023-05-27T07:05:47;102919.75;;;14.36;75.57
71778;BME280;59609;52.430;4.668;2023-05-27T07:08:13;102924.63;;;13.92;75.91
71778;BME280;59609;52.430;4.668;2023-05-27T07:10:38;102925.75;;;14.11;75.88
71778;BME280;59609;52.430;4.668;2023-05-27T07:13:04;102933.78;;;14.14;74.99
71778;BME280;59609;52.430;4.668;2023-05-27T07:15:29;102911.03;;;14.50;74.00
71778;BME280;59609;52.430;4.668;2023-05-27T07:17:56;102920.28;;;14.89;74.22
71778;BME280;59609;52.430;4.668;2023-05-27T07:20:22;102907.59;;;14.96;72.81
71778;BME280;59609;52.430;4.668;2023-05-27T07:22:47;102910.91;;;15.76;71.15
71778;BME280;59609;52.430;4.668;2023-05-27T07:25:13;102918.72;;;15.44;69.46
71778;BME280;59609;52.430;4.668;2023-05-27T07:27:38;102903.06;;;15.05;70.65
71778;BME280;59609;52.430;4.668;2023-05-27T07:30:04;102906.41;;;14.99;70.37
71778;BME280;59609;52.430;4.668;2023-05-27T07:32:30;102908.19;;;14.90;72.63
71778;BME280;59609;52.430;4.668;2023-05-27T07:34:55;102905.69;;;15.06;72.68
71778;BME280;59609;52.430;4.668;2023-05-27T07:37:22;102895.91;;;15.02;71.53
71778;BME280;59609;52.430;4.668;2023-05-27T07:39:49;102901.47;;;15.50;70.76
71778;BME280;59609;52.430;4.668;2023-05-27T07:42:16;102896.84;;;15.87;68.75
71778;BME280;59609;52.430;4.668;2023-05-27T07:44:41;102907.91;;;15.41;70.04
71778;BME280;59609;52.430;4.668;2023-05-27T07:47:07;102901.47;;;15.50;69.23
71778;BME280;59609;52.430;4.668;2023-05-27T07:49:33;102891.06;;;15.52;69.86
71778;BME280;59609;52.430;4.668;2023-05-27T07:51:58;102881.28;;;15.48;70.18
71778;BME280;59609;52.430;4.668;2023-05-27T07:54:23;102896.19;;;15.28;70.69
71778;BME280;59609;52.430;4.668;2023-05-27T07:56:49;102891.28;;;15.78;68.81
71778;BME280;59609;52.430;4.668;2023-05-27T07:59:14;102890.69;;;15.93;67.33
71778;BME280;59609;52.430;4.668;2023-05-27T08:01:39;102879.91;;;16.18;66.46
71778;BME280;59609;52.430;4.668;2023-05-27T08:04:05;102871.44;;;16.10;67.01
71778;BME280;59609;52.430;4.668;2023-05-27T08:06:31;102867.16;;;16.70;65.07
71778;BME280;59609;52.430;4.668;2023-05-27T08:08:56;102866.78;;;17.00;64.54
71778;BME280;59609;52.430;4.668;2023-05-27T08:11:21;102869.63;;;17.08;64.54
71778;BME280;59609;52.430;4.668;2023-05-27T08:13:47;102865.72;;;16.83;63.23
71778;BME280;59609;52.430;4.668;2023-05-27T08:16:12;102854.78;;;17.43;63.07
71778;BME280;59609;52.430;4.668;2023-05-27T08:18:38;102860.56;;;16.88;62.95
71778;BME280;59609;52.430;4.668;2023-05-27T08:21:03;102853.66;;;16.47;63.27
71778;BME280;59609;52.430;4.668;2023-05-27T08:23:28;102868.59;;;16.91;63.21
71778;BME280;59609;52.430;4.668;2023-05-27T08:25:54;102854.44;;;17.03;63.23
71778;BME280;59609;52.430;4.668;2023-05-27T08:28:19;102857.09;;;17.47;62.01
71778;BME280;59609;52.430;4.668;2023-05-27T08:30:44;102858.75;;;17.84;60.36
71778;BME280;59609;52.430;4.668;2023-05-27T08:33:10;102854.56;;;17.19;62.42
71778;BME280;59609;52.430;4.668;2023-05-27T08:35:35;102846.25;;;17.44;61.26
71778;BME280;59609;52.430;4.668;2023-05-27T08:38:01;102853.56;;;17.63;60.41
71778;BME280;59609;52.430;4.668;2023-05-27T08:40:26;102848.56;;;17.31;61.21
71778;BME280;59609;52.430;4.668;2023-05-27T08:42:52;102833.50;;;16.98;61.80
71778;BME280;59609;52.430;4.668;2023-05-27T08:45:17;102837.56;;;17.47;61.06
71778;BME280;59609;52.430;4.668;2023-05-27T08:47:43;102842.41;;;17.20;61.26
71778;BME280;59609;52.430;4.668;2023-05-27T08:50:09;102836.19;;;17.08;62.04
71778;BME280;59609;52.430;4.668;2023-05-27T08:52:39;102836.38;;;17.50;61.27
71778;BME280;59609;52.430;4.668;2023-05-27T08:55:07;102835.06;;;17.62;60.92
71778;BME280;59609;52.430;4.668;2023-05-27T08:57:36;102829.72;;;18.02;58.76
71778;BME280;59609;52.430;4.668;2023-05-27T09:00:02;102818.00;;;17.91;57.99
71778;BME280;59609;52.430;4.668;2023-05-27T09:02:36;102815.28;;;17.73;58.12
71778;BME280;59609;52.430;4.668;2023-05-27T09:05:02;102818.41;;;17.70;59.23
71778;BME280;59609;52.430;4.668;2023-05-27T09:07:27;102804.75;;;17.93;59.27
71778;BME280;59609;52.430;4.668;2023-05-27T09:09:56;102816.63;;;18.37;58.44
71778;BME280;59609;52.430;4.668;2023-05-27T09:12:24;102813.75;;;18.79;57.42
71778;BME280;59609;52.430;4.668;2023-05-27T09:14:51;102810.44;;;18.91;56.63
71778;BME280;59609;52.430;4.668;2023-05-27T09:17:16;102810.06;;;18.62;57.27
71778;BME280;59609;52.430;4.668;2023-05-27T09:19:42;102801.38;;;19.22;55.33
71778;BME280;59609;52.430;4.668;2023-05-27T09:22:09;102801.69;;;19.35;56.36
71778;BME280;59609;52.430;4.668;2023-05-27T09:24:34;102788.63;;;19.27;56.70
71778;BME280;59609;52.430;4.668;2023-05-27T09:27:00;102791.78;;;19.95;54.04
71778;BME280;59609;52.430;4.668;2023-05-27T09:29:25;102778.16;;;19.21;54.30
71778;BME280;59609;52.430;4.668;2023-05-27T09:31:54;102798.94;;;19.19;54.38
71778;BME280;59609;52.430;4.668;2023-05-27T09:34:23;102787.94;;;19.17;54.53
71778;BME280;59609;52.430;4.668;2023-05-27T09:36:50;102792.28;;;19.52;53.22
71778;BME280;59609;52.430;4.668;2023-05-27T09:39:17;102783.88;;;19.60;53.94
71778;BME280;59609;52.430;4.668;2023-05-27T09:41:43;102787.28;;;19.94;53.16
71778;BME280;59609;52.430;4.668;2023-05-27T09:44:14;102777.91;;;19.71;53.63
71778;BME280;59609;52.430;4.668;2023-05-27T09:46:40;102780.72;;;19.71;52.02
71778;BME280;59609;52.430;4.668;2023-05-27T09:49:07;102780.13;;;20.31;52.35
71778;BME280;59609;52.430;4.668;2023-05-27T09:51:35;102773.56;;;20.08;52.16
71778;BME280;59609;52.430;4.668;2023-05-27T09:54:03;102781.78;;;20.48;51.97
71778;BME280;59609;52.430;4.668;2023-05-27T09:56:29;102776.72;;;20.04;51.31
71778;BME280;59609;52.430;4.668;2023-05-27T09:58:55;102785.06;;;20.13;52.84
71778;BME280;59609;52.430;4.668;2023-05-27T10:01:25;102778.81;;;20.02;53.65
71778;BME280;59609;52.430;4.668;2023-05-27T10:03:51;102772.19;;;20.03;52.64
71778;BME280;59609;52.430;4.668;2023-05-27T10:06:17;102769.72;;;20.39;51.61
71778;BME280;59609;52.430;4.668;2023-05-27T10:08:44;102771.22;;;20.58;50.87
71778;BME280;59609;52.430;4.668;2023-05-27T10:11:10;102763.22;;;20.47;52.05
71778;BME280;59609;52.430;4.668;2023-05-27T10:13:36;102754.44;;;19.80;53.81
71778;BME280;59609;52.430;4.668;2023-05-27T10:16:02;102754.41;;;20.19;51.75
71778;BME280;59609;52.430;4.668;2023-05-27T10:18:29;102752.78;;;20.64;50.65
71778;BME280;59609;52.430;4.668;2023-05-27T10:20:57;102740.75;;;20.78;50.63
71778;BME280;59609;52.430;4.668;2023-05-27T10:23:27;102751.19;;;21.06;49.91
71778;BME280;59609;52.430;4.668;2023-05-27T10:25:56;102748.09;;;20.56;51.25
71778;BME280;59609;52.430;4.668;2023-05-27T10:28:32;102752.97;;;20.85;49.93
71778;BME280;59609;52.430;4.668;2023-05-27T10:31:14;102743.03;;;20.97;48.63
71778;BME280;59609;52.430;4.668;2023-05-27T10:33:50;102744.69;;;21.29;49.35
71778;BME280;59609;52.430;4.668;2023-05-27T10:36:27;102736.09;;;21.45;48.90
71778;BME280;59609;52.430;4.668;2023-05-27T10:39:11;102742.78;;;21.06;48.05
71778;BME280;59609;52.430;4.668;2023-05-27T10:41:40;102742.66;;;21.00;47.34
71778;BME280;59609;52.430;4.668;2023-05-27T10:44:06;102729.88;;;21.20;47.72
71778;BME280;59609;52.430;4.668;2023-05-27T10:46:39;102732.03;;;21.33;46.91
71778;BME280;59609;52.430;4.668;2023-05-27T10:49:25;102727.25;;;21.19;47.47
71778;BME280;59609;52.430;4.668;2023-05-27T10:51:52;102726.34;;;21.70;47.31
71778;BME280;59609;52.430;4.668;2023-05-27T10:54:18;102719.75;;;21.78;46.64
71778;BME280;59609;52.430;4.668;2023-05-27T10:56:50;102715.88;;;21.64;47.27
71778;BME280;59609;52.430;4.668;2023-05-27T10:59:20;102712.97;;;21.72;47.99
71778;BME280;59609;52.430;4.668;2023-05-27T11:01:54;102712.66;;;20.86;48.21
71778;BME280;59609;52.430;4.668;2023-05-27T11:04:20;102711.19;;;21.13;49.33
71778;BME280;59609;52.430;4.668;2023-05-27T11:06:59;102710.19;;;21.05;49.15
71778;BME280;59609;52.430;4.668;2023-05-27T11:09:25;102699.63;;;21.60;47.83
71778;BME280;59609;52.430;4.668;2023-05-27T11:11:51;102694.97;;;20.85;49.68
71778;BME280;59609;52.430;4.668;2023-05-27T11:14:17;102684.31;;;21.77;48.82
71778;BME280;59609;52.430;4.668;2023-05-27T11:16:48;102692.44;;;22.37;47.17
71778;BME280;59609;52.430;4.668;2023-05-27T11:19:17;102681.31;;;22.08;45.92
71778;BME280;59609;52.430;4.668;2023-05-27T11:21:44;102685.56;;;22.03;46.14
71778;BME280;59609;52.430;4.668;2023-05-27T11:24:17;102681.22;;;22.22;46.49
71778;BME280;59609;52.430;4.668;2023-05-27T11:26:46;102672.75;;;22.16;45.73
71778;BME280;59609;52.430;4.668;2023-05-27T11:29:13;102674.16;;;22.90;47.17
71778;BME280;59609;52.430;4.668;2023-05-27T11:31:40;102668.81;;;22.10;47.53
71778;BME280;59609;52.430;4.668;2023-05-27T11:36:38;102675.69;;;22.92;46.61
71778;BME280;59609;52.430;4.668;2023-05-27T11:39:03;102661.50;;;23.00;44.91
71778;BME280;59609;52.430;4.668;2023-05-27T11:41:29;102663.81;;;22.69;46.60
71778;BME280;59609;52.430;4.668;2023-05-27T11:44:00;102653.97;;;22.80;45.65
71778;BME280;59609;52.430;4.668;2023-05-27T11:46:39;102651.81;;;22.82;45.86
71778;BME280;59609;52.430;4.668;2023-05-27T11:49:05;102646.41;;;22.80;45.54
71778;BME280;59609;52.430;4.668;2023-05-27T11:51:36;102646.81;;;22.77;46.34
71778;BME280;59609;52.430;4.668;2023-05-27T11:54:01;102633.97;;;22.96;45.86
71778;BME280;59609;52.430;4.668;2023-05-27T11:56:27;102627.44;;;23.17;45.52
71778;BME280;59609;52.430;4.668;2023-05-27T11:58:54;102624.81;;;23.43;44.78
71778;BME280;59609;52.430;4.668;2023-05-27T12:01:20;102622.53;;;23.66;43.81
71778;BME280;59609;52.430;4.668;2023-05-27T12:03:45;102628.41;;;23.71;43.65
71778;BME280;59609;52.430;4.668;2023-05-27T12:06:11;102624.94;;;23.76;44.75
71778;BME280;59609;52.430;4.668;2023-05-27T12:08:36;102620.47;;;23.88;43.66
71778;BME280;59609;52.430;4.668;2023-05-27T12:11:03;102616.72;;;23.33;42.72
71778;BME280;59609;52.430;4.668;2023-05-27T12:13:29;102616.91;;;22.97;42.09
71778;BME280;59609;52.430;4.668;2023-05-27T12:15:57;102607.63;;;23.31;43.88
71778;BME280;59609;52.430;4.668;2023-05-27T12:18:22;102612.47;;;23.91;42.95
71778;BME280;59609;52.430;4.668;2023-05-27T12:20:48;102609.25;;;24.07;42.83
71778;BME280;59609;52.430;4.668;2023-05-27T12:23:13;102609.00;;;23.07;43.23
71778;BME280;59609;52.430;4.668;2023-05-27T12:25:39;102596.97;;;22.92;43.45
71778;BME280;59609;52.430;4.668;2023-05-27T12:28:07;102604.84;;;23.03;42.55
71778;BME280;59609;52.430;4.668;2023-05-27T12:30:32;102596.84;;;22.51;44.88
71778;BME280;59609;52.430;4.668;2023-05-27T12:32:59;102581.69;;;23.01;44.77
71778;BME280;59609;52.430;4.668;2023-05-27T12:35:24;102582.78;;;24.02;42.83
71778;BME280;59609;52.430;4.668;2023-05-27T12:37:50;102587.44;;;24.42;41.34
71778;BME280;59609;52.430;4.668;2023-05-27T12:40:15;102592.44;;;24.86;40.13
71778;BME280;59609;52.430;4.668;2023-05-27T12:42:41;102594.59;;;24.51;40.15
71778;BME280;59609;52.430;4.668;2023-05-27T12:45:08;102598.06;;;24.60;39.29
71778;BME280;59609;52.430;4.668;2023-05-27T12:47:34;102587.44;;;24.49;39.33
71778;BME280;59609;52.430;4.668;2023-05-27T12:49:59;102586.53;;;24.16;40.12
71778;BME280;59609;52.430;4.668;2023-05-27T12:52:25;102588.19;;;23.90;40.56
71778;BME280;59609;52.430;4.668;2023-05-27T12:54:50;102578.31;;;24.21;40.35